sensor_id;sensor_type;location;lat;lon;timestamp;P1;durP1;ratioP1;P2;durP2;ratioP2
40907;SDS011;51055;59.436;24.778;2022-12-08T00:01:27;9.80;;;5.65;;
40907;SDS011;51055;59.436;24.778;2022-12-08T00:03:58;8.82;;;4.80;;
40907;SDS011;51055;59.436;24.778;2022-12-08T00:12:09;10.25;;;5.30;;
40907;SDS011;51055;59.436;24.778;2022-12-08T00:14:41;10.20;;;4.97;;
40907;SDS011;51055;59.436;24.778;2022-12-08T00:17:12;10.75;;;5.03;;
40907;SDS011;51055;59.436;24.778;2022-12-08T00:19:42;10.73;;;5.22;;
40907;SDS011;51055;59.436;24.778;2022-12-08T00:22:10;5.90;;;3.42;;
40907;SDS011;51055;59.436;24.778;2022-12-08T00:24:39;10.02;;;4.80;;
40907;SDS011;51055;59.436;24.778;2022-12-08T00:27:08;12.93;;;5.35;;
40907;SDS011;51055;59.436;24.778;2022-12-08T00:29:37;8.07;;;4.72;;
40907;SDS011;51055;59.436;24.778;2022-12-08T00:32:05;10.43;;;5.72;;
40907;SDS011;51055;59.436;24.778;2022-12-08T00:34:33;8.50;;;4.72;;
40907;SDS011;51055;59.436;24.778;2022-12-08T00:37:01;9.32;;;5.13;;
40907;SDS011;51055;59.436;24.778;2022-12-08T00:39:29;9.05;;;4.68;;
40907;SDS011;51055;59.436;24.778;2022-12-08T00:41:57;8.57;;;4.63;;
40907;SDS011;51055;59.436;24.778;2022-12-08T00:44:40;9.70;;;4.47;;
40907;SDS011;51055;59.436;24.778;2022-12-08T00:49:36;9.27;;;4.57;;
40907;SDS011;51055;59.436;24.778;2022-12-08T00:52:03;9.57;;;5.47;;
40907;SDS011;51055;59.436;24.778;2022-12-08T00:54:31;10.05;;;5.05;;
40907;SDS011;51055;59.436;24.778;2022-12-08T00:56:59;12.65;;;5.30;;
40907;SDS011;51055;59.436;24.778;2022-12-08T00:59:27;8.65;;;4.90;;
40907;SDS011;51055;59.436;24.778;2022-12-08T01:01:54;10.43;;;5.40;;
40907;SDS011;51055;59.436;24.778;2022-12-08T01:04:22;9.65;;;5.05;;
40907;SDS011;51055;59.436;24.778;2022-12-08T01:06:50;13.13;;;5.43;;
40907;SDS011;51055;59.436;24.778;2022-12-08T01:09:18;7.63;;;3.78;;
40907;SDS011;51055;59.436;24.778;2022-12-08T01:11:46;8.63;;;4.60;;
40907;SDS011;51055;59.436;24.778;2022-12-08T01:16:42;10.73;;;6.10;;
40907;SDS011;51055;59.436;24.778;2022-12-08T01:19:11;9.60;;;5.10;;
40907;SDS011;51055;59.436;24.778;2022-12-08T01:21:40;12.27;;;5.53;;
40907;SDS011;51055;59.436;24.778;2022-12-08T01:24:12;9.20;;;5.05;;
40907;SDS011;51055;59.436;24.778;2022-12-08T01:26:41;10.15;;;5.22;;
40907;SDS011;51055;59.436;24.778;2022-12-08T01:29:09;12.63;;;5.22;;
40907;SDS011;51055;59.436;24.778;2022-12-08T01:31:37;11.80;;;4.97;;
40907;SDS011;51055;59.436;24.778;2022-12-08T01:34:05;12.10;;;5.28;;
40907;SDS011;51055;59.436;24.778;2022-12-08T01:36:35;10.85;;;5.55;;
40907;SDS011;51055;59.436;24.778;2022-12-08T01:39:07;9.30;;;5.25;;
40907;SDS011;51055;59.436;24.778;2022-12-08T01:41:45;10.00;;;4.68;;
40907;SDS011;51055;59.436;24.778;2022-12-08T01:46:41;8.98;;;4.80;;
40907;SDS011;51055;59.436;24.778;2022-12-08T01:51:57;10.93;;;4.57;;
40907;SDS011;51055;59.436;24.778;2022-12-08T01:54:30;8.27;;;4.78;;
40907;SDS011;51055;59.436;24.778;2022-12-08T01:57:13;10.18;;;4.72;;
40907;SDS011;51055;59.436;24.778;2022-12-08T01:59:48;9.23;;;4.95;;
40907;SDS011;51055;59.436;24.778;2022-12-08T02:02:21;8.73;;;4.72;;
40907;SDS011;51055;59.436;24.778;2022-12-08T02:04:50;8.77;;;4.78;;
40907;SDS011;51055;59.436;24.778;2022-12-08T02:07:18;8.70;;;4.57;;
40907;SDS011;51055;59.436;24.778;2022-12-08T02:09:46;9.60;;;4.85;;
40907;SDS011;51055;59.436;24.778;2022-12-08T02:12:14;11.93;;;5.20;;
40907;SDS011;51055;59.436;24.778;2022-12-08T02:14:41;11.27;;;5.35;;
40907;SDS011;51055;59.436;24.778;2022-12-08T02:17:20;9.05;;;4.30;;
40907;SDS011;51055;59.436;24.778;2022-12-08T02:22:56;9.30;;;5.28;;
40907;SDS011;51055;59.436;24.778;2022-12-08T02:25:32;12.23;;;5.32;;
40907;SDS011;51055;59.436;24.778;2022-12-08T02:28:24;9.75;;;5.38;;
40907;SDS011;51055;59.436;24.778;2022-12-08T02:33:51;11.80;;;4.97;;
40907;SDS011;51055;59.436;24.778;2022-12-08T02:36:40;9.15;;;4.90;;
40907;SDS011;51055;59.436;24.778;2022-12-08T02:39:26;9.82;;;5.43;;
40907;SDS011;51055;59.436;24.778;2022-12-08T02:45:12;9.95;;;4.85;;
40907;SDS011;51055;59.436;24.778;2022-12-08T02:47:52;8.55;;;4.65;;
40907;SDS011;51055;59.436;24.778;2022-12-08T02:50:20;9.38;;;4.68;;
40907;SDS011;51055;59.436;24.778;2022-12-08T02:52:47;9.65;;;4.80;;
40907;SDS011;51055;59.436;24.778;2022-12-08T02:55:17;8.23;;;4.50;;
40907;SDS011;51055;59.436;24.778;2022-12-08T03:01:13;9.82;;;5.30;;
40907;SDS011;51055;59.436;24.778;2022-12-08T03:03:29;8.57;;;5.03;;
40907;SDS011;51055;59.436;24.778;2022-12-08T03:06:20;11.20;;;4.95;;
40907;SDS011;51055;59.436;24.778;2022-12-08T03:11:33;12.45;;;4.93;;
40907;SDS011;51055;59.436;24.778;2022-12-08T03:14:09;12.73;;;5.38;;
40907;SDS011;51055;59.436;24.778;2022-12-08T03:16:41;10.80;;;5.40;;
40907;SDS011;51055;59.436;24.778;2022-12-08T03:19:15;9.27;;;5.10;;
40907;SDS011;51055;59.436;24.778;2022-12-08T03:21:47;10.63;;;5.13;;
40907;SDS011;51055;59.436;24.778;2022-12-08T03:24:18;13.00;;;5.93;;
40907;SDS011;51055;59.436;24.778;2022-12-08T03:26:49;11.48;;;5.88;;
40907;SDS011;51055;59.436;24.778;2022-12-08T03:29:23;9.50;;;4.95;;
40907;SDS011;51055;59.436;24.778;2022-12-08T03:31:52;7.88;;;4.40;;
40907;SDS011;51055;59.436;24.778;2022-12-08T03:34:25;9.50;;;4.55;;
40907;SDS011;51055;59.436;24.778;2022-12-08T03:36:55;9.55;;;4.80;;
40907;SDS011;51055;59.436;24.778;2022-12-08T03:39:26;10.57;;;4.82;;
40907;SDS011;51055;59.436;24.778;2022-12-08T03:41:53;9.80;;;5.20;;
40907;SDS011;51055;59.436;24.778;2022-12-08T03:44:21;10.10;;;5.30;;
40907;SDS011;51055;59.436;24.778;2022-12-08T03:46:49;10.90;;;5.20;;
40907;SDS011;51055;59.436;24.778;2022-12-08T03:49:16;11.52;;;5.20;;
40907;SDS011;51055;59.436;24.778;2022-12-08T03:51:44;8.63;;;4.70;;
40907;SDS011;51055;59.436;24.778;2022-12-08T03:54:11;8.77;;;5.05;;
40907;SDS011;51055;59.436;24.778;2022-12-08T03:56:39;8.55;;;4.65;;
40907;SDS011;51055;59.436;24.778;2022-12-08T03:59:06;9.45;;;5.18;;
40907;SDS011;51055;59.436;24.778;2022-12-08T04:01:35;9.02;;;4.93;;
40907;SDS011;51055;59.436;24.778;2022-12-08T04:04:02;11.32;;;5.50;;
40907;SDS011;51055;59.436;24.778;2022-12-08T04:06:30;8.68;;;4.75;;
40907;SDS011;51055;59.436;24.778;2022-12-08T04:08:58;9.05;;;4.53;;
40907;SDS011;51055;59.436;24.778;2022-12-08T04:11:25;9.55;;;5.05;;
40907;SDS011;51055;59.436;24.778;2022-12-08T04:13:53;9.98;;;4.97;;
40907;SDS011;51055;59.436;24.778;2022-12-08T04:16:22;10.45;;;5.05;;
40907;SDS011;51055;59.436;24.778;2022-12-08T04:18:51;9.70;;;5.03;;
40907;SDS011;51055;59.436;24.778;2022-12-08T04:21:19;7.47;;;3.80;;
40907;SDS011;51055;59.436;24.778;2022-12-08T04:23:47;7.53;;;4.03;;
40907;SDS011;51055;59.436;24.778;2022-12-08T04:26:15;8.48;;;4.78;;
40907;SDS011;51055;59.436;24.778;2022-12-08T04:28:43;10.40;;;4.93;;
40907;SDS011;51055;59.436;24.778;2022-12-08T04:31:11;9.55;;;4.93;;
40907;SDS011;51055;59.436;24.778;2022-12-08T04:33:38;9.93;;;5.20;;
40907;SDS011;51055;59.436;24.778;2022-12-08T04:36:06;11.05;;;5.28;;
40907;SDS011;51055;59.436;24.778;2022-12-08T04:38:34;8.60;;;4.20;;
40907;SDS011;51055;59.436;24.778;2022-12-08T04:41:02;9.65;;;5.15;;
40907;SDS011;51055;59.436;24.778;2022-12-08T04:43:30;10.57;;;5.13;;
40907;SDS011;51055;59.436;24.778;2022-12-08T04:45:57;10.43;;;5.28;;
40907;SDS011;51055;59.436;24.778;2022-12-08T04:48:25;9.55;;;4.88;;
40907;SDS011;51055;59.436;24.778;2022-12-08T04:50:53;11.48;;;5.43;;
40907;SDS011;51055;59.436;24.778;2022-12-08T04:53:21;9.40;;;5.00;;
40907;SDS011;51055;59.436;24.778;2022-12-08T04:55:49;8.33;;;4.17;;
40907;SDS011;51055;59.436;24.778;2022-12-08T04:58:17;10.07;;;5.72;;
40907;SDS011;51055;59.436;24.778;2022-12-08T05:00:47;10.10;;;5.55;;
40907;SDS011;51055;59.436;24.778;2022-12-08T05:03:15;6.85;;;3.95;;
40907;SDS011;51055;59.436;24.778;2022-12-08T05:05:43;9.88;;;5.28;;
40907;SDS011;51055;59.436;24.778;2022-12-08T05:08:11;11.03;;;5.37;;
40907;SDS011;51055;59.436;24.778;2022-12-08T05:10:39;11.07;;;5.00;;
40907;SDS011;51055;59.436;24.778;2022-12-08T05:13:06;11.27;;;6.18;;
40907;SDS011;51055;59.436;24.778;2022-12-08T05:15:34;10.55;;;5.45;;
40907;SDS011;51055;59.436;24.778;2022-12-08T05:18:03;10.13;;;5.57;;
40907;SDS011;51055;59.436;24.778;2022-12-08T05:20:32;8.68;;;4.95;;
40907;SDS011;51055;59.436;24.778;2022-12-08T05:23:01;10.65;;;5.15;;
40907;SDS011;51055;59.436;24.778;2022-12-08T05:25:28;9.10;;;5.20;;
40907;SDS011;51055;59.436;24.778;2022-12-08T05:27:56;12.57;;;5.50;;
40907;SDS011;51055;59.436;24.778;2022-12-08T05:30:43;10.30;;;6.00;;
40907;SDS011;51055;59.436;24.778;2022-12-08T05:33:11;10.23;;;5.72;;
40907;SDS011;51055;59.436;24.778;2022-12-08T05:35:39;10.23;;;5.85;;
40907;SDS011;51055;59.436;24.778;2022-12-08T05:38:06;11.50;;;5.95;;
40907;SDS011;51055;59.436;24.778;2022-12-08T05:40:35;9.27;;;5.82;;
40907;SDS011;51055;59.436;24.778;2022-12-08T05:43:05;10.50;;;5.30;;
40907;SDS011;51055;59.436;24.778;2022-12-08T05:45:32;10.60;;;5.70;;
40907;SDS011;51055;59.436;24.778;2022-12-08T05:48:00;11.65;;;5.78;;
40907;SDS011;51055;59.436;24.778;2022-12-08T05:50:28;11.00;;;6.38;;
40907;SDS011;51055;59.436;24.778;2022-12-08T05:52:56;12.73;;;6.00;;
40907;SDS011;51055;59.436;24.778;2022-12-08T05:55:23;11.30;;;6.55;;
40907;SDS011;51055;59.436;24.778;2022-12-08T05:57:51;11.43;;;6.30;;
40907;SDS011;51055;59.436;24.778;2022-12-08T06:00:18;10.43;;;5.82;;
40907;SDS011;51055;59.436;24.778;2022-12-08T06:02:47;10.13;;;5.60;;
40907;SDS011;51055;59.436;24.778;2022-12-08T06:05:14;9.93;;;5.57;;
40907;SDS011;51055;59.436;24.778;2022-12-08T06:07:42;12.07;;;6.13;;
40907;SDS011;51055;59.436;24.778;2022-12-08T06:10:10;10.40;;;5.93;;
40907;SDS011;51055;59.436;24.778;2022-12-08T06:12:38;7.72;;;4.57;;
40907;SDS011;51055;59.436;24.778;2022-12-08T06:15:06;7.90;;;4.25;;
40907;SDS011;51055;59.436;24.778;2022-12-08T06:17:34;13.27;;;6.22;;
40907;SDS011;51055;59.436;24.778;2022-12-08T06:20:02;9.77;;;5.40;;
40907;SDS011;51055;59.436;24.778;2022-12-08T06:22:30;9.52;;;5.60;;
40907;SDS011;51055;59.436;24.778;2022-12-08T06:24:58;9.25;;;5.50;;
40907;SDS011;51055;59.436;24.778;2022-12-08T06:27:25;11.95;;;6.63;;
40907;SDS011;51055;59.436;24.778;2022-12-08T06:29:53;11.43;;;7.20;;
40907;SDS011;51055;59.436;24.778;2022-12-08T06:32:21;25.70;;;13.13;;
40907;SDS011;51055;59.436;24.778;2022-12-08T06:34:53;18.95;;;10.07;;
40907;SDS011;51055;59.436;24.778;2022-12-08T06:37:21;16.98;;;9.07;;
40907;SDS011;51055;59.436;24.778;2022-12-08T06:39:48;11.13;;;6.82;;
40907;SDS011;51055;59.436;24.778;2022-12-08T06:42:16;11.93;;;7.78;;
40907;SDS011;51055;59.436;24.778;2022-12-08T06:45:02;12.50;;;7.75;;
40907;SDS011;51055;59.436;24.778;2022-12-08T06:47:30;17.45;;;11.15;;
40907;SDS011;51055;59.436;24.778;2022-12-08T06:49:58;11.53;;;6.43;;
40907;SDS011;51055;59.436;24.778;2022-12-08T06:52:25;19.08;;;12.82;;
40907;SDS011;51055;59.436;24.778;2022-12-08T06:54:53;13.00;;;8.65;;
40907;SDS011;51055;59.436;24.778;2022-12-08T06:57:20;15.38;;;8.77;;
40907;SDS011;51055;59.436;24.778;2022-12-08T06:59:50;13.50;;;8.48;;
40907;SDS011;51055;59.436;24.778;2022-12-08T07:02:18;13.88;;;7.82;;
40907;SDS011;51055;59.436;24.778;2022-12-08T07:04:45;15.30;;;8.57;;
40907;SDS011;51055;59.436;24.778;2022-12-08T07:07:13;13.57;;;7.87;;
40907;SDS011;51055;59.436;24.778;2022-12-08T07:09:41;12.57;;;8.07;;
40907;SDS011;51055;59.436;24.778;2022-12-08T07:12:09;14.05;;;8.88;;
40907;SDS011;51055;59.436;24.778;2022-12-08T07:14:36;17.38;;;10.70;;
40907;SDS011;51055;59.436;24.778;2022-12-08T07:17:04;17.65;;;11.90;;
40907;SDS011;51055;59.436;24.778;2022-12-08T07:19:32;15.25;;;8.32;;
40907;SDS011;51055;59.436;24.778;2022-12-08T07:22:00;12.55;;;7.90;;
40907;SDS011;51055;59.436;24.778;2022-12-08T07:24:27;13.13;;;8.10;;
40907;SDS011;51055;59.436;24.778;2022-12-08T07:26:55;12.30;;;7.55;;
40907;SDS011;51055;59.436;24.778;2022-12-08T07:29:22;13.88;;;8.20;;
40907;SDS011;51055;59.436;24.778;2022-12-08T07:31:52;13.93;;;7.38;;
40907;SDS011;51055;59.436;24.778;2022-12-08T07:34:20;13.98;;;7.57;;
40907;SDS011;51055;59.436;24.778;2022-12-08T07:36:47;12.57;;;7.32;;
40907;SDS011;51055;59.436;24.778;2022-12-08T07:39:15;12.57;;;7.60;;
40907;SDS011;51055;59.436;24.778;2022-12-08T07:41:43;14.30;;;7.43;;
40907;SDS011;51055;59.436;24.778;2022-12-08T07:44:11;10.83;;;5.80;;
40907;SDS011;51055;59.436;24.778;2022-12-08T07:46:38;13.70;;;7.70;;
40907;SDS011;51055;59.436;24.778;2022-12-08T07:49:06;12.02;;;7.10;;
40907;SDS011;51055;59.436;24.778;2022-12-08T07:51:34;13.20;;;7.05;;
40907;SDS011;51055;59.436;24.778;2022-12-08T07:54:01;15.05;;;7.97;;
40907;SDS011;51055;59.436;24.778;2022-12-08T07:56:29;15.77;;;8.13;;
40907;SDS011;51055;59.436;24.778;2022-12-08T07:58:56;12.55;;;7.30;;
40907;SDS011;51055;59.436;24.778;2022-12-08T08:01:26;14.43;;;7.60;;
40907;SDS011;51055;59.436;24.778;2022-12-08T08:03:57;13.23;;;7.47;;
40907;SDS011;51055;59.436;24.778;2022-12-08T08:06:31;15.00;;;7.30;;
40907;SDS011;51055;59.436;24.778;2022-12-08T08:09:00;16.15;;;7.82;;
40907;SDS011;51055;59.436;24.778;2022-12-08T08:11:27;12.65;;;7.32;;
40907;SDS011;51055;59.436;24.778;2022-12-08T08:13:55;12.40;;;7.93;;
40907;SDS011;51055;59.436;24.778;2022-12-08T08:16:23;9.60;;;5.78;;
40907;SDS011;51055;59.436;24.778;2022-12-08T08:18:52;11.88;;;6.55;;
40907;SDS011;51055;59.436;24.778;2022-12-08T08:21:20;13.20;;;8.25;;
40907;SDS011;51055;59.436;24.778;2022-12-08T08:24:08;13.73;;;7.83;;
40907;SDS011;51055;59.436;24.778;2022-12-08T08:26:36;15.38;;;8.88;;
40907;SDS011;51055;59.436;24.778;2022-12-08T08:29:04;10.85;;;6.22;;
40907;SDS011;51055;59.436;24.778;2022-12-08T08:31:31;14.10;;;8.50;;
40907;SDS011;51055;59.436;24.778;2022-12-08T08:33:59;14.20;;;8.88;;
40907;SDS011;51055;59.436;24.778;2022-12-08T08:36:32;13.07;;;7.57;;
40907;SDS011;51055;59.436;24.778;2022-12-08T08:39:00;14.15;;;8.23;;
40907;SDS011;51055;59.436;24.778;2022-12-08T08:41:28;14.70;;;9.75;;
40907;SDS011;51055;59.436;24.778;2022-12-08T08:43:56;15.82;;;9.60;;
40907;SDS011;51055;59.436;24.778;2022-12-08T08:46:23;17.10;;;9.52;;
40907;SDS011;51055;59.436;24.778;2022-12-08T08:48:51;15.13;;;9.32;;
40907;SDS011;51055;59.436;24.778;2022-12-08T08:51:19;14.48;;;9.57;;
40907;SDS011;51055;59.436;24.778;2022-12-08T08:53:47;13.85;;;8.63;;
40907;SDS011;51055;59.436;24.778;2022-12-08T08:56:16;13.88;;;8.05;;
40907;SDS011;51055;59.436;24.778;2022-12-08T08:58:48;14.60;;;8.30;;
40907;SDS011;51055;59.436;24.778;2022-12-08T09:01:17;16.90;;;8.75;;
40907;SDS011;51055;59.436;24.778;2022-12-08T09:03:48;12.77;;;8.27;;
40907;SDS011;51055;59.436;24.778;2022-12-08T09:06:16;13.57;;;8.43;;
40907;SDS011;51055;59.436;24.778;2022-12-08T09:08:44;14.13;;;9.47;;
40907;SDS011;51055;59.436;24.778;2022-12-08T09:11:12;17.13;;;9.57;;
40907;SDS011;51055;59.436;24.778;2022-12-08T09:13:41;13.60;;;7.50;;
40907;SDS011;51055;59.436;24.778;2022-12-08T09:16:10;14.38;;;8.75;;
40907;SDS011;51055;59.436;24.778;2022-12-08T09:18:38;12.95;;;8.30;;
40907;SDS011;51055;59.436;24.778;2022-12-08T09:21:07;14.10;;;9.05;;
40907;SDS011;51055;59.436;24.778;2022-12-08T09:23:38;17.30;;;9.02;;
40907;SDS011;51055;59.436;24.778;2022-12-08T09:26:06;11.75;;;6.85;;
40907;SDS011;51055;59.436;24.778;2022-12-08T09:28:35;14.80;;;7.93;;
40907;SDS011;51055;59.436;24.778;2022-12-08T09:31:03;14.75;;;8.50;;
40907;SDS011;51055;59.436;24.778;2022-12-08T09:33:31;14.32;;;8.43;;
40907;SDS011;51055;59.436;24.778;2022-12-08T09:36:02;14.13;;;7.65;;
40907;SDS011;51055;59.436;24.778;2022-12-08T09:38:30;16.33;;;9.20;;
40907;SDS011;51055;59.436;24.778;2022-12-08T09:40:58;23.23;;;10.48;;
40907;SDS011;51055;59.436;24.778;2022-12-08T09:46:12;22.92;;;11.23;;
40907;SDS011;51055;59.436;24.778;2022-12-08T09:48:53;22.73;;;11.20;;
40907;SDS011;51055;59.436;24.778;2022-12-08T09:51:24;27.08;;;11.40;;
40907;SDS011;51055;59.436;24.778;2022-12-08T09:54:04;24.48;;;12.40;;
40907;SDS011;51055;59.436;24.778;2022-12-08T09:56:36;28.40;;;12.30;;
40907;SDS011;51055;59.436;24.778;2022-12-08T10:01:35;28.98;;;12.98;;
40907;SDS011;51055;59.436;24.778;2022-12-08T10:09:30;25.45;;;11.77;;
40907;SDS011;51055;59.436;24.778;2022-12-08T10:20:05;14.07;;;9.48;;
40907;SDS011;51055;59.436;24.778;2022-12-08T10:22:38;14.13;;;9.05;;
40907;SDS011;51055;59.436;24.778;2022-12-08T10:27:48;15.65;;;8.98;;
40907;SDS011;51055;59.436;24.778;2022-12-08T10:30:20;14.93;;;9.20;;
40907;SDS011;51055;59.436;24.778;2022-12-08T10:32:49;13.00;;;8.63;;
40907;SDS011;51055;59.436;24.778;2022-12-08T10:35:19;17.27;;;9.82;;
40907;SDS011;51055;59.436;24.778;2022-12-08T10:37:58;16.10;;;10.00;;
40907;SDS011;51055;59.436;24.778;2022-12-08T10:40:28;18.02;;;10.65;;
40907;SDS011;51055;59.436;24.778;2022-12-08T10:43:14;21.75;;;11.43;;
40907;SDS011;51055;59.436;24.778;2022-12-08T10:45:47;19.30;;;11.73;;
40907;SDS011;51055;59.436;24.778;2022-12-08T10:48:16;19.92;;;11.90;;
40907;SDS011;51055;59.436;24.778;2022-12-08T10:50:57;21.75;;;11.50;;
40907;SDS011;51055;59.436;24.778;2022-12-08T10:53:28;19.48;;;11.73;;
40907;SDS011;51055;59.436;24.778;2022-12-08T10:58:29;20.67;;;12.18;;
40907;SDS011;51055;59.436;24.778;2022-12-08T11:00:59;19.20;;;12.27;;
40907;SDS011;51055;59.436;24.778;2022-12-08T11:03:36;21.30;;;12.95;;
40907;SDS011;51055;59.436;24.778;2022-12-08T11:06:12;23.75;;;13.68;;
40907;SDS011;51055;59.436;24.778;2022-12-08T11:08:45;23.27;;;13.75;;
40907;SDS011;51055;59.436;24.778;2022-12-08T11:11:15;19.73;;;12.90;;
40907;SDS011;51055;59.436;24.778;2022-12-08T11:13:43;15.93;;;10.25;;
40907;SDS011;51055;59.436;24.778;2022-12-08T11:16:12;20.20;;;12.77;;
40907;SDS011;51055;59.436;24.778;2022-12-08T11:18:45;17.85;;;11.75;;
40907;SDS011;51055;59.436;24.778;2022-12-08T11:21:33;18.60;;;11.75;;
40907;SDS011;51055;59.436;24.778;2022-12-08T11:26:50;21.05;;;12.63;;
40907;SDS011;51055;59.436;24.778;2022-12-08T11:29:24;20.35;;;12.52;;
40907;SDS011;51055;59.436;24.778;2022-12-08T11:32:05;19.42;;;12.48;;
40907;SDS011;51055;59.436;24.778;2022-12-08T11:34:52;17.48;;;12.00;;
40907;SDS011;51055;59.436;24.778;2022-12-08T11:37:23;16.88;;;11.20;;
40907;SDS011;51055;59.436;24.778;2022-12-08T11:45:26;18.70;;;11.65;;
40907;SDS011;51055;59.436;24.778;2022-12-08T11:50:44;15.10;;;9.13;;
40907;SDS011;51055;59.436;24.778;2022-12-08T11:53:16;15.90;;;8.50;;
40907;SDS011;51055;59.436;24.778;2022-12-08T11:55:51;12.75;;;8.20;;
40907;SDS011;51055;59.436;24.778;2022-12-08T11:58:25;13.85;;;8.52;;
40907;SDS011;51055;59.436;24.778;2022-12-08T12:01:01;14.18;;;8.98;;
40907;SDS011;51055;59.436;24.778;2022-12-08T12:03:38;15.55;;;8.65;;
40907;SDS011;51055;59.436;24.778;2022-12-08T12:09:26;15.05;;;8.77;;
40907;SDS011;51055;59.436;24.778;2022-12-08T12:20:02;15.07;;;9.10;;
40907;SDS011;51055;59.436;24.778;2022-12-08T12:22:38;15.38;;;9.50;;
40907;SDS011;51055;59.436;24.778;2022-12-08T12:25:14;14.63;;;9.55;;
40907;SDS011;51055;59.436;24.778;2022-12-08T12:27:44;14.32;;;9.48;;
40907;SDS011;51055;59.436;24.778;2022-12-08T12:30:47;11.32;;;6.93;;
40907;SDS011;51055;59.436;24.778;2022-12-08T12:33:20;16.55;;;9.45;;
40907;SDS011;51055;59.436;24.778;2022-12-08T12:35:49;16.05;;;9.25;;
40907;SDS011;51055;59.436;24.778;2022-12-08T12:38:21;13.95;;;9.50;;
40907;SDS011;51055;59.436;24.778;2022-12-08T12:41:12;14.07;;;9.82;;
40907;SDS011;51055;59.436;24.778;2022-12-08T12:44:05;16.13;;;9.85;;
40907;SDS011;51055;59.436;24.778;2022-12-08T12:46:40;13.80;;;8.82;;
40907;SDS011;51055;59.436;24.778;2022-12-08T12:54:36;16.95;;;8.93;;
40907;SDS011;51055;59.436;24.778;2022-12-08T12:59:46;14.05;;;9.20;;
40907;SDS011;51055;59.436;24.778;2022-12-08T13:05:12;16.27;;;8.98;;
40907;SDS011;51055;59.436;24.778;2022-12-08T13:12:43;15.32;;;10.10;;
40907;SDS011;51055;59.436;24.778;2022-12-08T13:15:16;15.00;;;8.85;;
40907;SDS011;51055;59.436;24.778;2022-12-08T13:17:46;13.98;;;8.23;;
40907;SDS011;51055;59.436;24.778;2022-12-08T13:20:22;15.77;;;8.30;;
40907;SDS011;51055;59.436;24.778;2022-12-08T13:28:17;13.27;;;8.20;;
40907;SDS011;51055;59.436;24.778;2022-12-08T13:30:48;14.98;;;8.98;;
40907;SDS011;51055;59.436;24.778;2022-12-08T13:33:18;16.70;;;9.05;;
40907;SDS011;51055;59.436;24.778;2022-12-08T13:36:35;13.55;;;8.43;;
40907;SDS011;51055;59.436;24.778;2022-12-08T13:38:55;13.27;;;8.43;;
40907;SDS011;51055;59.436;24.778;2022-12-08T13:41:37;14.43;;;8.50;;
40907;SDS011;51055;59.436;24.778;2022-12-08T13:44:21;17.50;;;8.35;;
40907;SDS011;51055;59.436;24.778;2022-12-08T13:47:19;14.07;;;8.32;;
40907;SDS011;51055;59.436;24.778;2022-12-08T13:55:57;13.80;;;9.20;;
40907;SDS011;51055;59.436;24.778;2022-12-08T13:58:46;15.57;;;9.57;;
40907;SDS011;51055;59.436;24.778;2022-12-08T14:01:20;15.50;;;10.10;;
40907;SDS011;51055;59.436;24.778;2022-12-08T14:03:54;15.40;;;9.23;;
40907;SDS011;51055;59.436;24.778;2022-12-08T14:06:54;13.70;;;9.60;;
40907;SDS011;51055;59.436;24.778;2022-12-08T14:09:25;17.25;;;10.00;;
40907;SDS011;51055;59.436;24.778;2022-12-08T14:12:05;14.95;;;9.60;;
40907;SDS011;51055;59.436;24.778;2022-12-08T14:14:45;16.52;;;9.73;;
40907;SDS011;51055;59.436;24.778;2022-12-08T14:17:31;15.27;;;9.02;;
40907;SDS011;51055;59.436;24.778;2022-12-08T14:22:36;16.48;;;9.30;;
40907;SDS011;51055;59.436;24.778;2022-12-08T14:25:06;15.55;;;9.85;;
40907;SDS011;51055;59.436;24.778;2022-12-08T14:27:40;14.63;;;8.82;;
40907;SDS011;51055;59.436;24.778;2022-12-08T14:32:43;14.07;;;8.95;;
40907;SDS011;51055;59.436;24.778;2022-12-08T14:35:17;14.60;;;8.95;;
40907;SDS011;51055;59.436;24.778;2022-12-08T14:37:49;14.95;;;9.38;;
40907;SDS011;51055;59.436;24.778;2022-12-08T14:40:22;16.30;;;9.25;;
40907;SDS011;51055;59.436;24.778;2022-12-08T14:51:04;13.88;;;9.02;;
40907;SDS011;51055;59.436;24.778;2022-12-08T14:53:37;13.48;;;8.55;;
40907;SDS011;51055;59.436;24.778;2022-12-08T14:56:18;15.07;;;9.57;;
40907;SDS011;51055;59.436;24.778;2022-12-08T15:01:38;15.27;;;9.13;;
40907;SDS011;51055;59.436;24.778;2022-12-08T15:04:08;14.32;;;8.85;;
40907;SDS011;51055;59.436;24.778;2022-12-08T15:06:49;12.13;;;8.10;;
40907;SDS011;51055;59.436;24.778;2022-12-08T15:10:23;13.52;;;8.32;;
40907;SDS011;51055;59.436;24.778;2022-12-08T15:12:36;13.10;;;8.60;;
40907;SDS011;51055;59.436;24.778;2022-12-08T15:20:25;14.57;;;7.97;;
40907;SDS011;51055;59.436;24.778;2022-12-08T15:23:05;13.43;;;8.20;;
40907;SDS011;51055;59.436;24.778;2022-12-08T15:25:47;12.52;;;8.02;;
40907;SDS011;51055;59.436;24.778;2022-12-08T15:28:17;14.07;;;8.63;;
40907;SDS011;51055;59.436;24.778;2022-12-08T15:30:53;11.80;;;8.20;;
40907;SDS011;51055;59.436;24.778;2022-12-08T15:33:21;14.02;;;8.43;;
40907;SDS011;51055;59.436;24.778;2022-12-08T15:35:49;11.50;;;8.07;;
40907;SDS011;51055;59.436;24.778;2022-12-08T15:38:21;14.65;;;9.10;;
40907;SDS011;51055;59.436;24.778;2022-12-08T15:40:52;13.18;;;8.73;;
40907;SDS011;51055;59.436;24.778;2022-12-08T15:43:21;13.95;;;8.18;;
40907;SDS011;51055;59.436;24.778;2022-12-08T15:45:50;13.77;;;8.43;;
40907;SDS011;51055;59.436;24.778;2022-12-08T15:48:27;11.68;;;7.47;;
40907;SDS011;51055;59.436;24.778;2022-12-08T15:50:56;11.85;;;7.82;;
40907;SDS011;51055;59.436;24.778;2022-12-08T15:53:24;12.90;;;8.40;;
40907;SDS011;51055;59.436;24.778;2022-12-08T15:55:52;14.02;;;8.35;;
40907;SDS011;51055;59.436;24.778;2022-12-08T15:58:40;15.52;;;9.52;;
40907;SDS011;51055;59.436;24.778;2022-12-08T16:01:25;16.48;;;8.75;;
40907;SDS011;51055;59.436;24.778;2022-12-08T16:03:53;16.20;;;9.65;;
40907;SDS011;51055;59.436;24.778;2022-12-08T16:06:41;15.20;;;8.85;;
40907;SDS011;51055;59.436;24.778;2022-12-08T16:09:34;13.88;;;8.43;;
40907;SDS011;51055;59.436;24.778;2022-12-08T16:12:05;13.07;;;8.27;;
40907;SDS011;51055;59.436;24.778;2022-12-08T16:15:25;14.13;;;8.93;;
40907;SDS011;51055;59.436;24.778;2022-12-08T16:18:19;11.20;;;7.25;;
40907;SDS011;51055;59.436;24.778;2022-12-08T16:20:51;12.68;;;7.60;;
40907;SDS011;51055;59.436;24.778;2022-12-08T16:23:39;13.63;;;7.60;;
40907;SDS011;51055;59.436;24.778;2022-12-08T16:26:14;12.40;;;7.68;;
40907;SDS011;51055;59.436;24.778;2022-12-08T16:29:04;13.52;;;8.15;;
40907;SDS011;51055;59.436;24.778;2022-12-08T16:31:33;13.13;;;8.10;;
40907;SDS011;51055;59.436;24.778;2022-12-08T16:34:01;7.87;;;5.37;;
40907;SDS011;51055;59.436;24.778;2022-12-08T16:36:28;13.05;;;7.80;;
40907;SDS011;51055;59.436;24.778;2022-12-08T16:38:56;13.95;;;7.75;;
40907;SDS011;51055;59.436;24.778;2022-12-08T16:41:23;14.13;;;7.95;;
40907;SDS011;51055;59.436;24.778;2022-12-08T16:44:09;12.07;;;7.45;;
40907;SDS011;51055;59.436;24.778;2022-12-08T16:46:37;10.20;;;6.10;;
40907;SDS011;51055;59.436;24.778;2022-12-08T16:49:06;12.88;;;7.32;;
40907;SDS011;51055;59.436;24.778;2022-12-08T16:51:35;10.63;;;6.03;;
40907;SDS011;51055;59.436;24.778;2022-12-08T16:54:02;12.07;;;7.03;;
40907;SDS011;51055;59.436;24.778;2022-12-08T16:56:30;11.15;;;6.68;;